Terminal Aerodrome Forecast
Issued by NWS

Home | Current Version | Previous Version | Text Only | Print | Product List | Glossary On
Versions: 1 2 3 4 5 6 7 8 9 10 11 12
000
FTUS45 KGJT 262343
TAFVEL
TAF
KVEL 262343Z 2700/2724 36012G22KT P6SM VCTS BKN120CB
      TEMPO 2700/2703 TSRA BKN120CB
     FM270300 23006KT P6SM VCTS BKN120CB
     FM270900 30005KT P6SM VCSH SCT150
     FM271900 16005KT P6SM VCTS BKN150CB
     FM272100 22007KT P6SM VCTS BKN150CB=

USA.gov is the U.S. government's official web portal to all federal, state and local government web resources and services.